Time;durP1;ratioP1;P1;durP2;ratioP2;P2;SDS_P1;SDS_P2;PMS_P1;PMS_P2;Temp;Humidity;BMP_temperature;BMP_pressure;BME280_temperature;BME280_humidity;BME280_pressure;Samples;Min_cycle;Max_cycle;Signal;HPM_P1;HPM_P2
2022/03/27 00:01:25;;;;;;;29.33;18.02;;;;;;;11.85;39.06;101375.41;5113589;28;20020;-78
2022/03/27 00:03:50;;;;;;;31.75;18.08;;;;;;;11.76;39.49;101357.25;5113516;28;20023;-79
2022/03/27 00:06:16;;;;;;;31.48;18.58;;;;;;;11.78;39.13;101374.16;5099463;28;20024;-79
2022/03/27 00:08:41;;;;;;;35.03;18.90;;;;;;;11.79;38.72;101367.78;5074882;28;20042;-80
2022/03/27 00:11:26;;;;;;;30.27;18.00;;;;;;;11.77;39.04;101357.13;5098777;28;20103;-80
2022/03/27 00:13:52;;;;;;;26.25;16.33;;;;;;;11.79;39.37;101363.28;5113204;28;20458;-79
2022/03/27 00:16:20;;;;;;;31.38;18.10;;;;;;;11.79;39.14;101365.97;5113320;28;20015;-79
2022/03/27 00:18:45;;;;;;;34.35;16.23;;;;;;;11.76;39.52;101343.78;5113209;28;20153;-78
2022/03/27 00:21:11;;;;;;;28.35;17.63;;;;;;;11.81;39.27;101353.22;5113150;28;20481;-77
2022/03/27 00:23:37;;;;;;;29.83;16.38;;;;;;;11.62;39.43;101350.16;5113002;28;20027;-77
2022/03/27 00:26:03;;;;;;;31.95;17.48;;;;;;;11.67;39.73;101344.44;5105054;28;20024;-78
2022/03/27 00:28:32;;;;;;;36.65;18.92;;;;;;;11.71;39.19;101346.78;5095265;28;20391;-78
2022/03/27 00:31:04;;;;;;;32.15;17.27;;;;;;;11.68;39.65;101340.78;5112784;28;20023;-77
2022/03/27 00:33:29;;;;;;;34.43;18.43;;;;;;;11.67;39.39;101333.66;5112770;28;20011;-79
2022/03/27 00:35:55;;;;;;;34.15;16.88;;;;;;;11.66;39.79;101340.00;5112729;28;20023;-80
2022/03/27 00:38:21;;;;;;;28.58;16.45;;;;;;;11.56;39.87;101326.34;5112667;28;20133;-79
2022/03/27 00:40:49;;;;;;;43.20;17.02;;;;;;;11.62;40.20;101325.91;5108615;28;20020;-78
2022/03/27 00:43:14;;;;;;;31.30;17.45;;;;;;;11.50;40.17;101331.34;5074086;28;20425;-78
2022/03/27 00:45:39;;;;;;;31.45;18.20;;;;;;;11.45;39.95;101334.38;5074018;28;20031;-78
2022/03/27 00:48:05;;;;;;;26.98;17.00;;;;;;;11.45;40.03;101324.47;5092312;28;20023;-79
2022/03/27 00:50:30;;;;;;;27.83;16.95;;;;;;;11.43;39.63;101330.94;5092331;28;20024;-77
2022/03/27 00:52:57;;;;;;;23.83;16.65;;;;;;;11.40;40.02;101323.09;5074238;28;20347;-79
2022/03/27 00:55:23;;;;;;;30.15;17.08;;;;;;;11.41;39.67;101322.97;5092724;28;20031;-77
2022/03/27 00:57:49;;;;;;;36.80;17.35;;;;;;;11.32;39.65;101322.78;5094022;28;20076;-78
2022/03/27 01:00:42;;;;;;;26.83;16.50;;;;;;;11.28;39.53;101335.59;5112220;28;20024;-78
2022/03/27 01:03:13;;;;;;;30.27;17.63;;;;;;;11.08;40.27;101335.34;5088517;28;20092;-78
2022/03/27 01:05:43;;;;;;;33.05;17.60;;;;;;;11.05;40.20;101331.03;5112171;28;20110;-78
2022/03/27 01:08:11;;;;;;;33.50;18.67;;;;;;;11.07;40.28;101325.56;5112408;28;20023;-78
2022/03/27 01:10:38;;;;;;;32.20;18.00;;;;;;;11.06;40.35;101331.91;5112121;28;20039;-78
2022/03/27 01:13:19;;;;;;;33.28;19.50;;;;;;;11.03;41.27;101324.91;5111596;28;20397;-78
2022/03/27 01:15:53;;;;;;;33.15;18.48;;;;;;;11.02;40.92;101320.50;5112091;28;20019;-78
2022/03/27 01:18:19;;;;;;;40.20;19.13;;;;;;;10.88;41.36;101318.81;5112245;28;20466;-78
2022/03/27 01:20:45;;;;;;;32.70;19.52;;;;;;;10.84;41.29;101322.69;5103122;28;20043;-78
2022/03/27 01:23:13;;;;;;;37.03;21.52;;;;;;;10.79;41.69;101303.28;5106669;28;20426;-78
2022/03/27 01:25:41;;;;;;;44.33;22.08;;;;;;;10.76;41.22;101310.75;5111929;28;20027;-78
2022/03/27 01:28:10;;;;;;;41.05;23.70;;;;;;;10.71;41.84;101313.75;5093636;28;20065;-79
2022/03/27 01:30:36;;;;;;;38.58;23.23;;;;;;;10.60;42.11;101307.41;5110269;28;20034;-78
2022/03/27 01:33:02;;;;;;;41.15;24.38;;;;;;;10.35;42.53;101319.03;5097904;28;20393;-78
2022/03/27 01:35:29;;;;;;;40.67;23.83;;;;;;;10.17;42.80;101302.34;5091702;28;20051;-78
2022/03/27 01:37:54;;;;;;;54.67;25.33;;;;;;;10.23;42.81;101314.50;5091462;28;20038;-78
2022/03/27 01:40:20;;;;;;;43.20;24.80;;;;;;;10.27;42.83;101316.03;5091476;28;20036;-78
2022/03/27 01:42:46;;;;;;;50.50;27.40;;;;;;;10.26;42.76;101306.22;5091459;28;20032;-78
2022/03/27 01:45:12;;;;;;;51.50;26.70;;;;;;;10.15;42.70;101298.88;5091515;28;20410;-78
2022/03/27 01:47:38;;;;;;;49.35;26.65;;;;;;;10.21;42.87;101311.06;5106711;28;20027;-78
2022/03/27 01:50:05;;;;;;;48.90;29.08;;;;;;;10.15;43.09;101304.25;5111970;28;20028;-78
2022/03/27 01:52:31;;;;;;;44.60;25.95;;;;;;;10.17;43.08;101306.88;5115786;28;20337;-79
2022/03/27 01:54:57;;;;;;;44.95;25.95;;;;;;;10.19;42.81;101302.22;5108984;28;20024;-78
2022/03/27 01:57:22;;;;;;;45.30;24.10;;;;;;;10.17;42.90;101309.56;5089970;28;20511;-78
2022/03/27 01:59:48;;;;;;;48.65;25.10;;;;;;;10.19;42.53;101302.22;5115938;28;20019;-79
2022/03/27 02:02:13;;;;;;;45.80;23.50;;;;;;;10.20;42.62;101309.34;5115846;28;20058;-78
2022/03/27 02:04:38;;;;;;;41.25;24.25;;;;;;;10.19;42.46;101307.59;5115689;28;20023;-78
2022/03/27 02:07:04;;;;;;;49.25;23.50;;;;;;;10.20;42.52;101309.34;5114882;28;20028;-78
2022/03/27 02:09:30;;;;;;;36.67;23.15;;;;;;;10.23;42.07;101303.75;5097225;28;20027;-79
2022/03/27 02:11:55;;;;;;;39.00;22.88;;;;;;;10.22;42.04;101304.69;5115262;28;20043;-78
2022/03/27 02:14:21;;;;;;;48.22;23.73;;;;;;;10.12;42.64;101301.75;5114694;28;20027;-79
2022/03/27 02:16:47;;;;;;;45.60;22.77;;;;;;;10.01;42.74;101301.63;5107913;28;20019;-78
2022/03/27 02:19:12;;;;;;;55.20;23.05;;;;;;;10.07;42.54;101297.66;5094792;28;20024;-78
2022/03/27 02:21:41;;;;;;;37.83;21.35;;;;;;;10.09;42.32;101307.34;5095055;28;20369;-78
2022/03/27 02:24:08;;;;;;;44.85;23.90;;;;;;;10.19;42.24;101315.66;5094853;28;20020;-78
2022/03/27 02:26:34;;;;;;;44.25;22.02;;;;;;;10.25;41.91;101304.50;5099128;28;20100;-78
2022/03/27 02:29:00;;;;;;;42.58;21.67;;;;;;;10.23;41.87;101298.38;5115269;28;20468;-78
2022/03/27 02:31:25;;;;;;;28.35;17.52;;;;;;;10.33;41.86;101308.41;5114946;28;20023;-78
2022/03/27 02:33:51;;;;;;;36.05;18.42;;;;;;;10.35;41.46;101308.28;5114654;28;20028;-78
2022/03/27 02:36:16;;;;;;;32.95;17.02;;;;;;;10.44;41.11;101302.25;5112577;28;20046;-78
2022/03/27 02:38:43;;;;;;;30.02;16.75;;;;;;;10.41;40.82;101302.47;5094704;28;20458;-79
2022/03/27 02:41:08;;;;;;;33.05;17.08;;;;;;;10.54;40.72;101314.09;5079939;28;20451;-79
2022/03/27 02:43:38;;;;;;;27.45;15.88;;;;;;;10.56;40.51;101303.22;5094463;28;20020;-78
2022/03/27 02:46:05;;;;;;;33.25;15.95;;;;;;;10.61;40.40;101311.84;5076100;28;20028;-79
2022/03/27 02:48:30;;;;;;;34.95;15.88;;;;;;;10.63;40.27;101309.91;5094649;28;20035;-79
2022/03/27 02:50:56;;;;;;;37.55;18.23;;;;;;;10.52;40.45;101305.25;5095453;28;20020;-79
2022/03/27 02:53:23;;;;;;;35.58;18.67;;;;;;;10.61;40.68;101314.53;5094270;28;20032;-78
2022/03/27 02:55:49;;;;;;;36.75;22.75;;;;;;;10.64;40.53;101317.84;5094342;28;20023;-78
2022/03/27 02:58:14;;;;;;;41.22;20.10;;;;;;;10.60;40.61;101321.72;5094330;28;20032;-79
2022/03/27 03:00:41;;;;;;;45.13;21.98;;;;;;;10.54;40.64;101319.47;5094181;28;20043;-78
2022/03/27 03:03:08;;;;;;;41.30;21.60;;;;;;;10.45;40.94;101317.44;5093450;28;20055;-78
2022/03/27 03:05:34;;;;;;;56.08;24.83;;;;;;;10.42;40.95;101316.78;5093791;28;20024;-78
2022/03/27 03:08:02;;;;;;;47.30;25.05;;;;;;;10.35;41.22;101321.72;5094126;28;20426;-78
2022/03/27 03:10:29;;;;;;;38.53;24.45;;;;;;;10.33;41.23;101326.34;5108894;28;20421;-78
2022/03/27 03:12:55;;;;;;;51.83;24.52;;;;;;;10.26;41.06;101325.03;5114126;28;20114;-78
2022/03/27 03:15:23;;;;;;;42.33;24.05;;;;;;;10.12;41.33;101322.41;5114365;28;20062;-78
2022/03/27 03:17:48;;;;;;;40.90;26.02;;;;;;;10.14;41.84;101325.88;5114382;28;20405;-78
2022/03/27 03:20:14;;;;;;;47.13;25.25;;;;;;;10.11;42.08;101323.38;5101946;28;20031;-78
2022/03/27 03:22:40;;;;;;;48.78;24.90;;;;;;;10.07;41.87;101324.53;5106785;28;20100;-82
2022/03/27 03:25:07;;;;;;;44.10;22.90;;;;;;;9.98;42.27;101330.53;5105500;28;20055;-81
2022/03/27 03:27:33;;;;;;;49.60;25.05;;;;;;;10.02;42.00;101334.75;5086374;28;20503;-83
2022/03/27 03:29:59;;;;;;;46.22;26.23;;;;;;;9.95;42.16;101336.13;5110034;28;20020;-83
2022/03/27 03:32:26;;;;;;;43.88;26.70;;;;;;;9.88;42.58;101337.53;5076247;28;20027;-82
2022/03/27 03:34:52;;;;;;;50.33;27.10;;;;;;;9.76;42.26;101342.72;5094838;28;20472;-81
2022/03/27 03:37:18;;;;;;;48.72;27.00;;;;;;;9.58;42.51;101327.84;5076283;28;20401;-82
2022/03/27 03:39:45;;;;;;;52.38;28.50;;;;;;;9.54;43.21;101331.69;5094425;28;20127;-84
2022/03/27 03:42:11;;;;;;;51.92;25.95;;;;;;;9.56;43.07;101339.66;5076357;28;20024;-82
2022/03/27 03:44:37;;;;;;;46.13;25.05;;;;;;;9.45;42.92;101326.09;5094763;28;20476;-81
2022/03/27 03:47:03;;;;;;;45.10;24.40;;;;;;;9.60;42.80;101347.38;5094331;28;20020;-80
2022/03/27 03:49:29;;;;;;;46.40;24.65;;;;;;;9.61;42.81;101343.75;5098837;28;20435;-80
2022/03/27 03:51:54;;;;;;;37.17;20.25;;;;;;;9.69;42.37;101357.53;5095508;28;20031;-78
2022/03/27 03:54:20;;;;;;;44.05;20.52;;;;;;;9.71;42.28;101350.25;5113697;28;20038;-78
2022/03/27 03:56:45;;;;;;;36.55;19.35;;;;;;;9.85;41.95;101350.19;5113529;28;20045;-77
2022/03/27 03:59:11;;;;;;;33.83;16.83;;;;;;;9.98;41.97;101349.34;5108882;28;20016;-78
2022/03/27 04:01:36;;;;;;;31.63;17.50;;;;;;;10.02;41.62;101349.06;5074732;28;20016;-77
2022/03/27 04:04:02;;;;;;;31.77;16.25;;;;;;;10.01;41.53;101351.84;5092964;28;20099;-78
2022/03/27 04:06:28;;;;;;;33.55;16.17;;;;;;;10.14;41.33;101355.47;5092833;28;20031;-77
2022/03/27 04:08:53;;;;;;;36.10;16.20;;;;;;;10.17;40.99;101357.94;5093110;28;20409;-77
2022/03/27 04:11:19;;;;;;;28.05;16.25;;;;;;;10.10;40.74;101356.59;5092629;28;20154;-77
2022/03/27 04:13:45;;;;;;;27.95;15.07;;;;;;;10.18;40.97;101367.72;5074792;28;20039;-77
2022/03/27 04:16:12;;;;;;;39.55;15.63;;;;;;;10.29;41.12;101365.16;5092742;28;20073;-77
2022/03/27 04:18:37;;;;;;;25.42;15.15;;;;;;;10.30;40.70;101358.84;5096152;28;20060;-77
2022/03/27 04:21:03;;;;;;;37.70;16.85;;;;;;;10.45;40.55;101364.97;5085106;28;20351;-78
2022/03/27 04:23:28;;;;;;;33.17;15.57;;;;;;;10.47;40.43;101363.03;5092304;28;20081;-78
2022/03/27 04:25:54;;;;;;;34.35;16.13;;;;;;;10.48;40.28;101362.06;5092486;28;20481;-78
2022/03/27 04:28:19;;;;;;;30.92;14.73;;;;;;;10.60;40.41;101367.47;5074594;28;20556;-78
2022/03/27 04:30:45;;;;;;;30.98;16.42;;;;;;;10.69;39.99;101364.13;5092574;28;20064;-78
2022/03/27 04:33:10;;;;;;;33.72;17.27;;;;;;;10.70;40.03;101371.22;5092653;28;20024;-78
2022/03/27 04:35:36;;;;;;;39.63;18.23;;;;;;;10.83;40.07;101374.78;5093034;28;20046;-78
2022/03/27 04:38:01;;;;;;;36.53;15.88;;;;;;;10.97;39.80;101378.31;5100600;28;20180;-78
2022/03/27 04:40:27;;;;;;;28.10;15.15;;;;;;;11.07;39.54;101376.72;5112722;28;20027;-78
2022/03/27 04:42:53;;;;;;;26.02;14.75;;;;;;;11.19;39.36;101378.53;5112836;28;20023;-78
2022/03/27 04:45:18;;;;;;;32.25;16.15;;;;;;;11.17;39.21;101366.97;5112541;28;20128;-77
2022/03/27 04:47:44;;;;;;;27.20;14.00;;;;;;;11.25;38.92;101380.78;5092885;28;20036;-77
2022/03/27 04:50:09;;;;;;;41.60;16.13;;;;;;;11.22;38.98;101373.75;5112063;28;20492;-78
2022/03/27 04:52:36;;;;;;;30.38;16.20;;;;;;;11.29;38.61;101376.88;5112458;28;20492;-78
2022/03/27 04:55:02;;;;;;;29.67;16.98;;;;;;;11.34;38.57;101386.31;5093759;28;20023;-78
2022/03/27 04:57:34;;;;;;;25.83;16.48;;;;;;;11.38;38.92;101378.88;5100438;28;20459;-78
2022/03/27 05:00:00;;;;;;;28.08;16.83;;;;;;;11.40;38.90;101387.72;5084706;28;20058;-78
2022/03/27 05:02:27;;;;;;;34.15;17.40;;;;;;;11.46;38.72;101395.38;5100055;28;20038;-78
2022/03/27 05:04:52;;;;;;;33.15;17.48;;;;;;;11.45;38.02;101388.25;5103013;28;20451;-78
2022/03/27 05:07:17;;;;;;;41.63;18.00;;;;;;;11.47;38.13;101392.56;5100258;28;20024;-76
2022/03/27 05:09:43;;;;;;;31.77;16.77;;;;;;;11.50;38.37;101402.22;5101309;28;20478;-76
2022/03/27 05:12:09;;;;;;;42.42;18.75;;;;;;;11.46;38.60;101396.25;5100985;28;20493;-77
2022/03/27 05:14:36;;;;;;;35.95;19.30;;;;;;;11.48;38.75;101402.38;5081803;28;20024;-77
2022/03/27 05:17:04;;;;;;;36.70;20.67;;;;;;;11.58;38.82;101399.88;5082384;28;20059;-76
2022/03/27 05:19:30;;;;;;;45.17;18.75;;;;;;;11.63;38.72;101410.28;5101452;28;20051;-77
2022/03/27 05:21:55;;;;;;;37.67;19.35;;;;;;;11.61;38.77;101407.72;5100146;28;20514;-78
2022/03/27 05:24:21;;;;;;;43.80;20.63;;;;;;;11.55;38.57;101405.47;5082597;28;20339;-77
2022/03/27 05:26:46;;;;;;;54.53;20.83;;;;;;;11.67;38.31;101419.88;5100683;28;20055;-77
2022/03/27 05:29:13;;;;;;;34.40;19.70;;;;;;;11.70;38.45;101417.00;5102200;28;20123;-77
2022/03/27 05:31:39;;;;;;;41.50;20.30;;;;;;;11.65;39.05;101400.28;5100677;28;20023;-77
2022/03/27 05:34:04;;;;;;;37.00;21.27;;;;;;;11.75;39.14;101417.50;5083408;28;20036;-78
2022/03/27 05:36:30;;;;;;;40.90;21.17;;;;;;;11.76;38.66;101417.41;5080056;28;20034;-78
2022/03/27 05:38:55;;;;;;;38.25;22.17;;;;;;;11.87;38.98;101416.59;5102498;28;20031;-78
2022/03/27 05:41:21;;;;;;;40.80;22.02;;;;;;;11.96;38.98;101418.59;5080068;28;20024;-78
2022/03/27 05:43:46;;;;;;;51.40;23.55;;;;;;;12.04;39.10;101423.44;5100554;28;20024;-78
2022/03/27 05:46:12;;;;;;;40.70;21.00;;;;;;;12.07;38.69;101412.44;5103403;28;20081;-78
2022/03/27 05:48:38;;;;;;;48.83;22.45;;;;;;;12.11;38.82;101413.91;5100493;28;20406;-78
2022/03/27 05:51:03;;;;;;;53.70;23.58;;;;;;;12.17;38.72;101408.91;5101717;28;20102;-77
2022/03/27 05:53:29;;;;;;;50.53;25.60;;;;;;;12.22;38.75;101408.56;5082543;28;20417;-80
2022/03/27 05:55:56;;;;;;;46.42;22.83;;;;;;;12.29;38.40;101401.75;5102724;28;20053;-78
2022/03/27 05:58:21;;;;;;;47.03;23.65;;;;;;;12.37;38.56;101402.00;5102531;28;20415;-79
2022/03/27 06:00:47;;;;;;;45.80;23.45;;;;;;;12.44;38.58;101395.16;5082983;28;20520;-77
2022/03/27 06:03:12;;;;;;;48.50;25.42;;;;;;;12.48;39.20;101399.31;5102844;28;20016;-78
2022/03/27 06:05:38;;;;;;;48.28;24.90;;;;;;;12.57;38.65;101404.00;5084016;28;20370;-78
2022/03/27 06:08:04;;;;;;;50.92;24.27;;;;;;;12.53;38.55;101405.25;5100674;28;20103;-77
2022/03/27 06:10:32;;;;;;;47.60;25.23;;;;;;;12.56;38.61;101407.72;5099211;28;20418;-77
2022/03/27 06:12:59;;;;;;;45.70;25.08;;;;;;;12.51;38.74;101402.66;5099892;28;20035;-77
2022/03/27 06:15:27;;;;;;;56.08;27.60;;;;;;;12.49;39.09;101404.63;5075908;28;20020;-77
2022/03/27 06:17:54;;;;;;;46.80;27.40;;;;;;;12.59;39.24;101407.47;5100178;28;20394;-78
2022/03/27 06:20:28;;;;;;;50.85;27.83;;;;;;;12.61;38.67;101407.34;5104321;28;20026;-76
2022/03/27 06:22:54;;;;;;;52.65;25.95;;;;;;;12.77;39.21;101414.13;5098086;28;20456;-77
2022/03/27 06:25:23;;;;;;;49.67;27.50;;;;;;;12.86;38.78;101407.16;5098860;28;20030;-77
2022/03/27 06:27:49;;;;;;;41.25;25.70;;;;;;;12.96;39.21;101424.38;5086228;28;20485;-77
2022/03/27 06:30:19;;;;;;;58.90;27.40;;;;;;;12.95;39.06;101401.91;5111502;28;20032;-76
2022/03/27 06:32:45;;;;;;;53.95;25.52;;;;;;;13.12;38.56;101414.06;5083341;28;20467;-78
2022/03/27 06:35:12;;;;;;;57.38;25.83;;;;;;;13.15;38.54;101413.00;5090578;28;20107;-78
2022/03/27 06:37:39;;;;;;;53.10;26.67;;;;;;;13.22;38.68;101415.06;5091835;28;20055;-78
2022/03/27 06:40:06;;;;;;;61.75;27.20;;;;;;;13.28;38.78;101398.38;5102331;28;20028;-78
2022/03/27 06:42:32;;;;;;;50.50;26.23;;;;;;;13.44;38.64;101408.81;5103622;28;20024;-79
2022/03/27 06:44:58;;;;;;;52.83;25.60;;;;;;;13.62;38.05;101415.41;5100775;28;20016;-78
2022/03/27 06:47:26;;;;;;;51.90;24.73;;;;;;;13.77;37.84;101416.88;5095169;28;20031;-79
2022/03/27 06:49:53;;;;;;;49.05;24.95;;;;;;;13.91;37.82;101408.47;5095049;28;20073;-79
2022/03/27 06:52:19;;;;;;;35.80;21.67;;;;;;;13.95;37.81;101403.66;5094414;28;20361;-83
2022/03/27 06:54:46;;;;;;;50.58;22.67;;;;;;;14.18;37.30;101422.41;5077136;28;20101;-80
2022/03/27 06:57:12;;;;;;;36.97;20.75;;;;;;;14.34;37.23;101419.28;5097669;28;20023;-85
2022/03/27 07:05:07;;;;;;;43.65;23.73;;;;;;;14.75;36.99;101413.06;5105932;28;20033;-77
2022/03/27 07:07:35;;;;;;;33.75;19.95;;;;;;;14.83;36.62;101412.41;5094604;28;20020;-79
2022/03/27 07:10:01;;;;;;;30.73;17.80;;;;;;;15.07;36.39;101418.41;5094753;28;20023;-80
2022/03/27 07:12:27;;;;;;;29.83;18.13;;;;;;;15.11;35.60;101411.69;5094661;28;20471;-80
2022/03/27 07:14:52;;;;;;;32.38;17.88;;;;;;;15.21;35.86;101418.88;5095077;28;20035;-81
2022/03/27 07:17:22;;;;;;;40.10;20.98;;;;;;;15.32;35.48;101417.09;5109876;28;20028;-90
2022/03/27 07:19:48;;;;;;;44.42;20.10;;;;;;;15.35;35.23;101420.38;5104274;28;20047;-82
2022/03/27 07:22:14;;;;;;;39.15;20.30;;;;;;;15.42;35.20;101421.53;5075981;28;20362;-85
2022/03/27 07:24:41;;;;;;;42.55;20.20;;;;;;;15.42;35.16;101417.97;5098296;28;20063;-84
2022/03/27 07:27:08;;;;;;;36.17;17.85;;;;;;;15.52;35.10;101425.19;5089264;28;20020;-82
2022/03/27 07:29:35;;;;;;;37.90;18.65;;;;;;;15.52;35.13;101416.19;5095916;28;20027;-83
2022/03/27 07:32:01;;;;;;;34.40;19.00;;;;;;;15.53;35.01;101412.50;5077977;28;20044;-82
2022/03/27 07:34:27;;;;;;;34.50;20.38;;;;;;;15.61;35.30;101412.66;5127368;27;20095;-81
2022/03/27 07:36:53;;;;;;;43.17;19.17;;;;;;;15.74;35.41;101426.84;5096199;28;20106;-81
2022/03/27 07:39:19;;;;;;;41.17;18.90;;;;;;;15.76;35.34;101428.41;5113835;28;20459;-76
2022/03/27 07:41:44;;;;;;;43.28;20.38;;;;;;;15.83;35.34;101427.84;5114056;28;20122;-81
2022/03/27 07:44:10;;;;;;;36.33;19.23;;;;;;;15.83;35.38;101423.28;5105235;28;20150;-79
2022/03/27 07:46:36;;;;;;;34.15;17.70;;;;;;;15.95;35.33;101424.88;5114252;28;20020;-80
2022/03/27 07:49:02;;;;;;;33.60;18.23;;;;;;;15.99;35.37;101410.00;5113813;28;20485;-80
2022/03/27 07:51:27;;;;;;;41.20;17.88;;;;;;;16.13;34.87;101409.63;5113938;28;20476;-80
2022/03/27 07:53:53;;;;;;;35.20;16.65;;;;;;;16.30;34.74;101411.63;5119884;27;20026;-80
2022/03/27 07:56:19;;;;;;;37.63;15.95;;;;;;;16.45;34.45;101406.63;5119806;27;20031;-77
2022/03/27 07:58:46;;;;;;;29.38;15.98;;;;;;;16.56;34.27;101390.22;5122674;27;20036;-75
2022/03/27 08:01:15;;;;;;;31.75;15.88;;;;;;;16.78;33.91;101408.94;5114565;28;20497;-80
2022/03/27 08:03:44;;;;;;;36.80;16.90;;;;;;;16.97;33.83;101402.56;5105751;28;20020;-79
2022/03/27 08:06:10;;;;;;;32.72;13.68;;;;;;;17.15;33.22;101394.53;5107458;28;20039;-80
2022/03/27 08:08:35;;;;;;;24.95;13.18;;;;;;;17.28;33.25;101379.56;5109688;28;20031;-80
2022/03/27 08:11:02;;;;;;;26.05;13.95;;;;;;;17.41;32.96;101374.66;5103608;28;20040;-77
2022/03/27 08:13:28;;;;;;;34.65;12.55;;;;;;;17.66;32.22;101397.59;5098997;28;20053;-80
2022/03/27 08:15:54;;;;;;;22.58;11.38;;;;;;;17.78;32.11;101392.81;5102279;28;20106;-81
2022/03/27 08:18:20;;;;;;;42.70;13.02;;;;;;;17.89;31.65;101395.28;5092916;28;20095;-77
2022/03/27 08:20:46;;;;;;;28.52;12.95;;;;;;;18.07;31.88;101404.34;5092674;28;20108;-79
2022/03/27 08:23:12;;;;;;;24.58;11.05;;;;;;;18.20;31.43;101398.53;5095195;28;20111;-82
2022/03/27 08:28:22;;;;;;;28.85;12.23;;;;;;;18.43;30.86;101395.19;5115193;28;20157;-85
2022/03/27 08:30:49;;;;;;;29.23;12.20;;;;;;;18.48;30.65;101370.19;5095660;28;20064;-81
2022/03/27 08:33:16;;;;;;;23.63;12.90;;;;;;;18.78;30.71;101396.16;5094464;28;20191;-80
2022/03/27 08:35:45;;;;;;;29.60;11.77;;;;;;;18.85;30.58;101391.78;5112103;27;20103;-80
2022/03/27 08:38:15;;;;;;;23.70;12.73;;;;;;;19.05;30.30;101385.09;5089060;28;20027;-77
2022/03/27 08:40:45;;;;;;;28.38;11.82;;;;;;;19.18;29.86;101385.53;5082308;28;20051;-78
2022/03/27 08:43:15;;;;;;;25.95;11.88;;;;;;;19.36;29.54;101394.47;5110046;28;20047;-80
2022/03/27 08:45:42;;;;;;;18.17;10.68;;;;;;;19.39;29.32;101399.66;5106123;28;20438;-79
2022/03/27 08:48:08;;;;;;;24.73;12.50;;;;;;;19.39;29.33;101372.38;5093406;28;20099;-80
2022/03/27 08:51:07;;;;;;;30.02;12.32;;;;;;;19.71;29.65;101392.63;5086543;28;20032;-79
2022/03/27 08:53:57;;;;;;;23.90;11.25;;;;;;;19.75;29.09;101383.09;5110627;28;20039;-78
2022/03/27 08:56:24;;;;;;;19.02;11.88;;;;;;;19.87;28.69;101381.78;5091094;28;20103;-79
2022/03/27 08:58:51;;;;;;;30.65;11.95;;;;;;;20.01;28.33;101372.91;5103287;28;20062;-78
2022/03/27 09:01:17;;;;;;;24.10;12.20;;;;;;;20.08;28.25;101379.41;5091657;28;20047;-76
2022/03/27 09:03:43;;;;;;;30.55;12.18;;;;;;;20.07;28.05;101372.25;5091642;28;20496;-78
2022/03/27 09:06:09;;;;;;;25.77;11.07;;;;;;;20.21;27.95;101374.34;5091445;28;20448;-77
2022/03/27 09:08:34;;;;;;;34.08;11.63;;;;;;;20.34;27.63;101374.69;5091485;28;20028;-76
2022/03/27 09:11:01;;;;;;;22.15;10.32;;;;;;;20.40;27.63;101357.63;5092023;28;20039;-77
2022/03/27 09:13:33;;;;;;;27.77;11.93;;;;;;;20.46;26.72;101367.00;5091184;28;20024;-76
2022/03/27 09:16:01;;;;;;;27.17;11.05;;;;;;;20.56;27.01;101364.97;5091042;28;20023;-77
2022/03/27 09:18:42;;;;;;;28.85;11.63;;;;;;;20.84;26.60;101370.91;5091110;28;20027;-77
2022/03/27 09:21:07;;;;;;;28.95;10.15;;;;;;;20.95;26.32;101356.88;5091101;28;20081;-77
2022/03/27 09:23:35;;;;;;;24.02;11.48;;;;;;;20.99;26.34;101363.72;5089642;28;20028;-77
2022/03/27 09:26:06;;;;;;;29.85;11.40;;;;;;;20.95;26.21;101362.34;5090813;28;20055;-75
2022/03/27 09:28:41;;;;;;;26.35;10.75;;;;;;;21.00;26.41;101366.28;5090713;28;20032;-75
2022/03/27 09:31:13;;;;;;;23.30;10.07;;;;;;;21.07;26.06;101369.16;5090919;28;20024;-76
2022/03/27 09:33:46;;;;;;;21.85;10.57;;;;;;;20.97;25.85;101371.25;5072955;28;20028;-77
2022/03/27 09:36:17;;;;;;;23.23;8.30;;;;;;;21.08;25.94;101368.13;5091193;28;20028;-77
2022/03/27 09:39:00;;;;;;;23.25;9.55;;;;;;;21.19;25.87;101373.28;5091362;28;20054;-77
2022/03/27 09:41:33;;;;;;;29.83;9.77;;;;;;;21.32;25.66;101380.91;5090861;28;20024;-76
2022/03/27 09:44:08;;;;;;;27.05;9.55;;;;;;;21.37;25.44;101367.56;5072944;28;20020;-77
2022/03/27 09:46:59;;;;;;;16.13;7.97;;;;;;;21.60;24.73;101379.44;5072791;28;20028;-77
2022/03/27 09:49:31;;;;;;;15.57;6.97;;;;;;;21.77;24.76;101372.00;5091176;28;20382;-80
2022/03/27 09:52:00;;;;;;;21.58;8.90;;;;;;;22.02;24.23;101385.41;5090845;28;20573;-75
2022/03/27 09:54:27;;;;;;;22.60;9.60;;;;;;;22.25;23.82;101385.44;5072833;28;20103;-77
2022/03/27 09:56:53;;;;;;;18.95;8.25;;;;;;;22.39;23.26;101398.34;5091031;28;20023;-76
2022/03/27 09:59:31;;;;;;;18.05;7.50;;;;;;;22.40;23.21;101386.34;5090853;28;20089;-75
2022/03/27 10:02:35;;;;;;;16.90;8.93;;;;;;;22.60;23.30;101397.66;5091113;28;20053;-77
2022/03/27 10:05:03;;;;;;;164.85;18.35;;;;;;;22.32;25.11;101405.59;5072271;28;20031;-77
2022/03/27 10:07:39;;;;;;;47.78;14.15;;;;;;;21.90;27.28;101424.34;5091018;28;20031;-77
2022/03/27 10:10:09;;;;;;;115.93;17.30;;;;;;;20.64;29.81;101425.09;5086561;28;20035;-76
2022/03/27 10:12:37;;;;;;;48.10;15.32;;;;;;;20.00;31.33;101415.75;5075692;28;20119;-77
2022/03/27 10:15:08;;;;;;;31.08;14.68;;;;;;;19.57;32.36;101450.56;5078484;28;20413;-77
2022/03/27 10:17:36;;;;;;;63.33;15.73;;;;;;;19.29;32.93;101431.63;5097742;28;20027;-75
2022/03/27 10:20:06;;;;;;;40.15;15.30;;;;;;;19.10;33.33;101437.31;5094905;28;20020;-76
2022/03/27 10:22:35;;;;;;;34.72;13.88;;;;;;;18.72;34.06;101454.03;5095314;28;20017;-77
2022/03/27 10:25:03;;;;;;;30.77;14.68;;;;;;;18.89;34.04;101439.53;5094313;28;20069;-77
2022/03/27 10:27:30;;;;;;;31.50;13.57;;;;;;;18.60;34.22;101428.03;5094208;28;20028;-76
2022/03/27 10:29:57;;;;;;;36.70;14.05;;;;;;;18.61;34.35;101440.66;5094321;28;20410;-76
2022/03/27 10:32:24;;;;;;;26.25;12.52;;;;;;;18.38;34.28;101457.44;5075604;28;20028;-76
2022/03/27 10:35:13;;;;;;;21.38;11.98;;;;;;;18.23;34.42;101461.69;5095429;28;20081;-75
2022/03/27 10:38:10;;;;;;;48.97;12.90;;;;;;;18.00;34.61;101457.72;5093953;28;20064;-76
2022/03/27 10:40:49;;;;;;;28.25;10.85;;;;;;;17.80;35.12;101472.41;5094110;28;20028;-76
2022/03/27 10:43:42;;;;;;;29.88;12.90;;;;;;;17.72;35.51;101480.47;5075642;28;20562;-77
2022/03/27 10:46:22;;;;;;;32.78;12.35;;;;;;;17.72;35.75;101483.22;5094081;28;20409;-76
2022/03/27 10:48:49;;;;;;;30.25;11.48;;;;;;;17.60;35.88;101492.56;5094108;28;20107;-76
2022/03/27 10:51:29;;;;;;;54.85;12.95;;;;;;;17.72;36.29;101496.81;5093754;28;20471;-76
2022/03/27 10:54:07;;;;;;;31.65;12.35;;;;;;;17.60;36.41;101481.69;5093619;28;20032;-75
2022/03/27 10:56:36;;;;;;;30.25;11.27;;;;;;;17.35;36.77;101484.03;5075537;28;20452;-74
2022/03/27 10:59:09;;;;;;;40.78;10.13;;;;;;;17.23;37.59;101478.91;5093903;28;20026;-75
2022/03/27 11:01:56;;;;;;;50.10;11.18;;;;;;;16.97;38.06;101480.53;5093663;28;20035;-76
2022/03/27 11:04:44;;;;;;;35.47;10.05;;;;;;;16.98;37.87;101477.66;5058914;28;20028;-74
2022/03/27 11:07:15;;;;;;;53.65;11.63;;;;;;;16.69;38.59;101495.88;5093688;28;20053;-75
2022/03/27 11:09:44;;;;;;;35.00;9.95;;;;;;;16.77;38.32;101498.72;5075765;28;20401;-76
2022/03/27 11:12:25;;;;;;;39.97;9.18;;;;;;;16.77;38.02;101509.56;5093424;28;20074;-78
2022/03/27 11:14:51;;;;;;;29.00;9.50;;;;;;;16.80;37.94;101503.84;5094118;28;20161;-77
2022/03/27 11:17:29;;;;;;;24.88;8.80;;;;;;;16.57;37.32;101507.88;5094526;28;20067;-77
2022/03/27 11:19:54;;;;;;;34.63;9.13;;;;;;;16.66;37.35;101513.31;5093742;28;20034;-77
2022/03/27 11:22:48;;;;;;;37.83;9.32;;;;;;;16.65;37.14;101518.88;5075466;28;20028;-77